• Join FlightAware (Why Join?)
  • Login
  • US Flag 
09:53AM EDT


 

Airport Tracker/Info


-or-


 

Live Flight TrackerFlight Track Log ✈ AAR8731 ✈ 27-Sep-2013 ✈ RKSS / GMP - RKJY / RSU

Flight Track Log - Related Links

Times and Time Zones

All times are in EDT time to prevent confusion due to time zone crossing. See the AAR8731 flight status page for this flight to view local times or setup timezone preferences in your user account.

Time Position Orientation Groundspeed Altitude Reporting Facility
EDT Latitude Longitude Course Direction KTS MPH feet Rate Location/Type
06:36PM 37.3032 126.8706 166° South  Level Estimated
06:37PM 37.2181 126.8971 166° South  Level Estimated
06:38PM 37.1330 126.9236 166° South  Level Estimated
06:39PM 37.0479 126.9500 166° South  Level Estimated
06:39PM 37.2550 126.6690 166° South 388 447 17,200  Level FlightAware
06:39PM 37.1940 126.6870 167° South 408 470 18,600 2,160 Climbing FlightAware
06:40PM 37.1260 126.7070 167° South 423 487 19,800 900 Climbing FlightAware
06:41PM 37.0610 126.7260 167° South 423 487 19,800  Level FlightAware
06:41PM 37.0010 126.7430 167° South 423 487 19,800  Level FlightAware
06:42PM 36.9430 126.7600 167° South 423 487 19,800  Level FlightAware
06:42PM 36.8840 126.7770 167° South 423 487 19,800  Level FlightAware
06:43PM 36.8260 126.7940 167° South 423 487 19,800  Level FlightAware
06:44PM 36.7680 126.8110 167° South 423 487 19,800  Level FlightAware
06:46PM 36.6105 126.8783 161° South  Level Estimated
06:47PM 36.5275 126.9136 161° South  Level Estimated
06:48PM 36.4446 126.9488 161° South  Level Estimated
06:49PM 36.3616 126.9840 161° South  Level Estimated
06:50PM 36.2786 127.0191 161° South  Level Estimated
06:51PM 36.1956 127.0541 161° South  Level Estimated
06:52PM 36.1127 127.0890 161° South  Level Estimated
06:53PM 36.0297 127.1239 161° South  Level Estimated
06:54PM 35.9467 127.1587 161° South  Level Estimated
06:55PM 35.8636 127.1934 161° South  Level Estimated
06:56PM 35.7806 127.2280 161° South  Level Estimated
06:57PM 35.6976 127.2626 161° South  Level Estimated
06:58PM 35.6145 127.2971 161° South  Level Estimated
06:59PM 35.5314 127.3315 161° South  Level Estimated
07:00PM 35.4484 127.3659 161° South  Level Estimated
07:01PM 35.3653 127.4002 161° South  Level Estimated
07:02PM 35.2822 127.4344 161° South  Level Estimated
07:03PM 35.1991 127.4685 161° South  Level Estimated
07:04PM 35.1160 127.5026 161° South  Level Estimated
07:05PM 35.0329 127.5366 161° South  Level Estimated
07:06PM 34.9498 127.5705 161° South  Level Estimated
07:07PM 34.8667 127.6044 162° South  Level Estimated
07:08PM 34.8398 127.6153 162° South  Level Estimated
07:09PM 34.8398 127.6153 180° South  Level Estimated
07:10PM 34.8398 127.6153 180° South  Level Estimated
07:11PM 34.8398 127.6153 180° South  Level Estimated
07:12PM 34.8398 127.6153 180° South  Level Estimated
07:13PM 34.8398 127.6153 180° South  Level Estimated
07:14PM 34.8398 127.6153 180° South  Level Estimated
07:15PM 34.8398 127.6153 180° South  Level Estimated
07:16PM 34.8398 127.6153 180° South  Level Estimated
07:17PM 34.8398 127.6153 180° South  Level Estimated
07:18PM 34.8398 127.6153 180° South  Level Estimated
07:19PM 34.8398 127.6153 180° South  Level Estimated
07:20PM 34.8398 127.6153 180° South  Level Estimated